createdAt,value
2023-03-18T00:01:16.280Z,8.67
2023-03-18T00:03:43.989Z,8.64
2023-03-18T00:06:19.225Z,8.65
2023-03-18T00:08:49.697Z,8.70
2023-03-18T00:11:21.324Z,8.66
2023-03-18T00:13:49.264Z,8.63
2023-03-18T00:16:16.931Z,8.57
2023-03-18T00:18:44.654Z,8.54
2023-03-18T00:21:12.208Z,8.52
2023-03-18T00:23:46.211Z,8.52
2023-03-18T00:26:12.946Z,8.51
2023-03-18T00:28:46.115Z,8.50
2023-03-18T00:31:16.304Z,8.46
2023-03-18T00:33:46.210Z,8.44
2023-03-18T00:36:14.814Z,8.48
2023-03-18T00:38:51.119Z,8.47
2023-03-18T00:41:17.945Z,8.45
2023-03-18T00:43:54.176Z,8.42
2023-03-18T00:46:37.641Z,8.39
2023-03-18T00:49:11.583Z,8.40
2023-03-18T00:51:44.975Z,8.38
2023-03-18T00:54:18.065Z,8.36
2023-03-18T00:56:45.518Z,8.38
2023-03-18T00:59:13.283Z,8.39
2023-03-18T01:01:46.675Z,8.39
2023-03-18T01:04:13.347Z,8.32
2023-03-18T01:06:47.626Z,8.28
2023-03-18T01:09:14.283Z,8.29
2023-03-18T01:11:46.813Z,8.31
2023-03-18T01:14:13.567Z,8.32
2023-03-18T01:16:43.261Z,8.33
2023-03-18T01:19:10.666Z,8.34
2023-03-18T01:21:37.602Z,8.34
2023-03-18T01:24:05.005Z,8.33
2023-03-18T01:26:32.390Z,8.32
2023-03-18T01:28:59.560Z,8.31
2023-03-18T01:31:26.444Z,8.29
2023-03-18T01:33:53.217Z,8.29
2023-03-18T01:36:19.874Z,8.30
2023-03-18T01:38:46.910Z,8.32
2023-03-18T01:41:14.389Z,8.34
2023-03-18T01:43:47.418Z,8.39
2023-03-18T01:46:53.840Z,8.36
2023-03-18T01:49:35.254Z,8.36
2023-03-18T01:52:12.914Z,8.37
2023-03-18T01:55:00.354Z,8.38
2023-03-18T01:57:32.689Z,8.34
2023-03-18T02:00:10.836Z,8.37
2023-03-18T02:02:49.126Z,8.39
2023-03-18T02:07:53.909Z,8.41
2023-03-18T02:10:32.368Z,8.44
2023-03-18T02:13:10.656Z,8.48
2023-03-18T02:16:03.543Z,8.50
2023-03-18T02:18:48.746Z,8.51
2023-03-18T02:22:10.841Z,8.50
2023-03-18T02:25:43.597Z,8.48
2023-03-18T02:28:24.778Z,8.47
2023-03-18T02:31:01.320Z,8.42
2023-03-18T02:33:38.668Z,8.36
2023-03-18T02:36:19.427Z,8.31
2023-03-18T02:38:47.893Z,8.28
2023-03-18T02:41:34.151Z,8.27
2023-03-18T02:44:02.082Z,8.22
2023-03-18T02:46:47.259Z,8.21
2023-03-18T02:49:17.703Z,8.21
2023-03-18T02:51:51.366Z,8.20
2023-03-18T02:54:30.452Z,8.17
2023-03-18T02:56:58.316Z,8.16
2023-03-18T02:59:25.576Z,8.17
2023-03-18T03:01:55.688Z,8.13
2023-03-18T03:04:27.038Z,8.14
2023-03-18T03:06:56.842Z,8.13
2023-03-18T03:09:23.963Z,8.10
2023-03-18T03:11:51.520Z,8.08
2023-03-18T03:14:18.218Z,8.13
2023-03-18T03:16:50.415Z,8.13
2023-03-18T03:19:17.909Z,8.10
2023-03-18T03:21:47.575Z,8.05
2023-03-18T03:24:14.310Z,8.03
2023-03-18T03:26:50.112Z,8.01
2023-03-18T03:29:16.717Z,8.05
2023-03-18T03:31:46.338Z,8.02
2023-03-18T03:34:13.222Z,8.00
2023-03-18T03:36:42.295Z,7.95
2023-03-18T03:39:09.105Z,7.92
2023-03-18T03:41:35.800Z,7.92
2023-03-18T03:44:04.640Z,7.89
2023-03-18T03:46:31.415Z,7.89
2023-03-18T03:48:58.099Z,7.88
2023-03-18T03:51:24.817Z,7.86
2023-03-18T03:53:51.502Z,7.85
2023-03-18T03:56:18.496Z,7.82
2023-03-18T03:58:48.005Z,7.81
2023-03-18T04:01:14.895Z,7.83
2023-03-18T04:03:42.516Z,7.89
2023-03-18T04:06:09.241Z,7.91
2023-03-18T04:08:36.251Z,7.91
2023-03-18T04:11:04.728Z,7.89
2023-03-18T04:13:31.481Z,7.88
2023-03-18T04:15:58.208Z,7.87
2023-03-18T04:18:25.962Z,7.91
2023-03-18T04:20:52.994Z,7.89
2023-03-18T04:23:19.716Z,7.89
2023-03-18T04:25:49.760Z,7.88
2023-03-18T04:28:16.484Z,7.91
2023-03-18T04:30:43.172Z,7.87
2023-03-18T04:33:10.215Z,7.79
2023-03-18T04:35:42.641Z,7.69
2023-03-18T04:38:11.124Z,7.62
2023-03-18T04:40:47.916Z,7.55
2023-03-18T04:43:15.420Z,7.56
2023-03-18T04:45:57.973Z,7.58
2023-03-18T04:48:28.514Z,7.58
2023-03-18T04:50:55.179Z,7.56
2023-03-18T04:53:22.124Z,7.56
2023-03-18T04:55:53.015Z,7.59
2023-03-18T04:58:19.697Z,7.63
2023-03-18T05:00:54.778Z,7.66
2023-03-18T05:03:21.702Z,7.65
2023-03-18T05:05:49.235Z,7.64
2023-03-18T05:08:16.591Z,7.65
2023-03-18T05:10:43.449Z,7.63
2023-03-18T05:13:13.197Z,7.60
2023-03-18T05:15:41.268Z,7.56
2023-03-18T05:18:11.062Z,7.55
2023-03-18T05:20:55.740Z,7.54
2023-03-18T05:23:22.506Z,7.51
2023-03-18T05:25:51.058Z,7.49
2023-03-18T05:28:18.224Z,7.51
2023-03-18T05:30:44.931Z,7.53
2023-03-18T05:33:13.837Z,7.48
2023-03-18T05:35:43.314Z,7.42
2023-03-18T05:38:10.224Z,7.38
2023-03-18T05:40:37.427Z,7.42
2023-03-18T05:43:04.931Z,7.45
2023-03-18T05:45:32.481Z,7.50
2023-03-18T05:47:59.618Z,7.44
2023-03-18T05:50:39.930Z,7.38
2023-03-18T05:53:08.186Z,7.33
2023-03-18T05:55:35.935Z,7.33
2023-03-18T05:58:07.519Z,7.37
2023-03-18T06:00:35.668Z,7.38
2023-03-18T06:03:02.605Z,7.45
2023-03-18T06:05:32.759Z,7.58
2023-03-18T06:08:01.294Z,7.65
2023-03-18T06:10:28.881Z,7.70
2023-03-18T06:12:55.730Z,7.80
2023-03-18T06:15:24.436Z,7.86
2023-03-18T06:17:52.770Z,7.91
2023-03-18T06:20:20.748Z,8.00
2023-03-18T06:22:51.602Z,8.01
2023-03-18T06:25:21.760Z,8.00
2023-03-18T06:27:52.254Z,8.01
2023-03-18T06:30:19.827Z,8.02
2023-03-18T06:32:49.060Z,8.04
2023-03-18T06:35:19.322Z,8.11
2023-03-18T06:37:46.282Z,8.18
2023-03-18T06:40:13.413Z,8.24
2023-03-18T06:42:43.320Z,8.30
2023-03-18T06:45:14.657Z,8.31
2023-03-18T06:47:45.080Z,8.33
2023-03-18T06:50:15.269Z,8.29
2023-03-18T06:52:48.138Z,8.29
2023-03-18T07:50:30.614Z,10.33
2023-03-18T07:52:57.434Z,10.27
2023-03-18T07:55:24.411Z,10.31
2023-03-18T07:57:57.346Z,10.32
2023-03-18T08:00:28.263Z,10.29
2023-03-18T08:02:59.885Z,10.33
2023-03-18T08:05:31.658Z,10.29
2023-03-18T08:08:02.109Z,10.32
2023-03-18T08:10:29.679Z,10.39
2023-03-18T08:12:57.871Z,10.39
2023-03-18T08:15:33.482Z,10.49
2023-03-18T08:18:00.810Z,10.69
2023-03-18T08:20:36.123Z,10.91
2023-03-18T08:23:03.576Z,11.73
2023-03-18T08:25:48.571Z,12.30
2023-03-18T08:28:28.318Z,12.50
2023-03-18T08:33:44.888Z,12.34
2023-03-18T08:36:20.832Z,13.11
2023-03-18T08:38:56.853Z,13.39
2023-03-18T08:41:27.147Z,13.57
2023-03-18T08:44:05.289Z,13.93
2023-03-18T08:46:37.494Z,13.93
2023-03-18T08:49:30.782Z,13.50
2023-03-18T08:52:10.570Z,13.52
2023-03-18T08:54:37.280Z,13.07
2023-03-18T08:57:06.716Z,12.97
2023-03-18T09:02:20.679Z,12.95
2023-03-18T09:04:48.215Z,12.83
2023-03-18T09:07:20.718Z,12.95
2023-03-18T09:10:19.146Z,12.96
2023-03-18T09:12:46.777Z,12.61
2023-03-18T09:26:19.914Z,12.58
2023-03-18T10:28:38.616Z,13.33
2023-03-18T10:31:41.602Z,13.31
2023-03-18T10:34:19.583Z,13.53
2023-03-18T10:37:51.600Z,13.37
2023-03-18T10:40:26.389Z,13.02
2023-03-18T10:43:04.426Z,13.01
2023-03-18T10:45:35.466Z,13.03
2023-03-18T10:49:19.108Z,12.85
2023-03-18T10:52:26.840Z,12.99
2023-03-18T10:54:54.132Z,13.03
2023-03-18T10:57:33.279Z,12.90
2023-03-18T11:00:00.316Z,12.94
2023-03-18T11:02:46.461Z,12.98
2023-03-18T11:05:34.581Z,13.18
2023-03-18T11:08:09.109Z,13.99
2023-03-18T11:10:48.434Z,15.30
2023-03-18T11:13:29.793Z,16.00
2023-03-18T11:16:05.969Z,16.41
2023-03-18T11:18:37.535Z,16.10
2023-03-18T11:21:13.299Z,15.13
2023-03-18T11:23:56.682Z,15.05
2023-03-18T11:26:30.397Z,15.22
2023-03-18T11:29:10.578Z,15.44
2023-03-18T11:34:44.854Z,15.20
2023-03-18T11:37:16.693Z,15.45
2023-03-18T11:39:46.219Z,15.44
2023-03-18T11:42:38.410Z,15.45
2023-03-18T11:45:53.207Z,14.86
2023-03-18T11:48:30.827Z,14.37
2023-03-18T11:55:23.522Z,14.12
2023-03-18T11:58:30.251Z,14.56
2023-03-18T12:01:46.922Z,15.20
2023-03-18T12:05:18.944Z,15.98
2023-03-18T12:09:12.297Z,16.35
2023-03-18T12:13:08.441Z,16.63
2023-03-18T12:16:11.770Z,16.13
2023-03-18T12:19:14.231Z,15.57
2023-03-18T12:22:42.206Z,14.81
2023-03-18T12:25:48.980Z,14.23
2023-03-18T12:28:45.580Z,14.50
2023-03-18T12:31:52.857Z,14.89
2023-03-18T12:35:24.234Z,16.14
2023-03-18T12:38:35.762Z,17.15
2023-03-18T12:41:30.274Z,17.66
2023-03-18T12:44:42.361Z,17.68
2023-03-18T12:47:37.424Z,17.35
2023-03-18T12:50:48.767Z,17.23
2023-03-18T12:53:45.470Z,15.89
2023-03-18T12:56:21.411Z,15.44
2023-03-18T12:59:18.405Z,14.96
2023-03-18T13:02:35.284Z,14.64
2023-03-18T13:05:28.776Z,14.32
2023-03-18T13:08:33.739Z,14.11
2023-03-18T13:11:46.667Z,13.85
2023-03-18T13:14:51.995Z,13.72
2023-03-18T13:20:43.628Z,14.28
2023-03-18T13:24:19.591Z,14.32
2023-03-18T13:28:07.964Z,14.34
2023-03-18T13:31:28.655Z,13.93
2023-03-18T13:34:48.579Z,13.97
2023-03-18T13:38:25.964Z,14.04
2023-03-18T13:41:44.307Z,14.29
2023-03-18T13:44:54.079Z,14.03
2023-03-18T13:47:25.801Z,14.49
2023-03-18T13:50:24.165Z,15.40
2023-03-18T13:52:57.076Z,16.88
2023-03-18T13:56:14.008Z,16.49
2023-03-18T13:58:48.384Z,17.42
2023-03-18T14:01:37.627Z,16.72
2023-03-18T14:07:24.714Z,15.26
2023-03-18T14:10:18.943Z,15.82
2023-03-18T14:13:04.701Z,15.35
2023-03-18T14:15:44.926Z,14.74
2023-03-18T14:18:37.670Z,14.84
2023-03-18T14:21:29.333Z,14.89
2023-03-18T14:24:20.139Z,15.20
2023-03-18T14:27:10.714Z,16.32
2023-03-18T14:29:48.365Z,16.10
2023-03-18T14:32:50.897Z,17.49
2023-03-18T14:35:54.264Z,18.55
2023-03-18T14:39:08.979Z,18.25
2023-03-18T14:41:47.229Z,19.07
2023-03-18T14:44:47.646Z,18.63
2023-03-18T14:47:51.840Z,19.48
2023-03-18T14:50:43.868Z,19.73
2023-03-18T14:53:29.932Z,18.77
2023-03-18T14:56:20.216Z,17.36
2023-03-18T14:58:59.746Z,16.16
2023-03-18T15:01:53.906Z,14.99
2023-03-18T15:04:29.840Z,14.54
2023-03-18T15:07:11.287Z,14.67
2023-03-18T15:09:48.037Z,14.61
2023-03-18T15:12:29.087Z,14.99
2023-03-18T15:14:57.708Z,14.77
2023-03-18T15:17:27.619Z,15.57
2023-03-18T15:20:00.408Z,16.47
2023-03-18T15:40:24.750Z,17.26
2023-03-18T15:43:28.233Z,17.81
2023-03-18T15:46:18.652Z,19.09
2023-03-18T15:48:55.734Z,19.17
2023-03-18T15:52:14.142Z,18.46
2023-03-18T15:54:49.628Z,18.54
2023-03-18T15:57:38.388Z,17.87
2023-03-18T16:00:22.180Z,17.03
2023-03-18T16:02:50.635Z,16.48
2023-03-18T16:05:28.916Z,16.33
2023-03-18T16:07:59.247Z,15.93
2023-03-18T16:10:38.540Z,15.38
2023-03-18T16:13:17.701Z,14.78
2023-03-18T16:15:46.819Z,14.15
2023-03-18T16:18:18.141Z,13.77
2023-03-18T16:20:49.199Z,13.46
2023-03-18T16:23:21.563Z,13.20
2023-03-18T16:25:54.771Z,12.97
2023-03-18T16:28:28.542Z,12.76
2023-03-18T16:31:04.432Z,12.56
2023-03-18T16:33:52.665Z,12.27
2023-03-18T16:36:34.987Z,12.04
2023-03-18T16:39:34.109Z,11.87
2023-03-18T16:42:09.922Z,11.66
2023-03-18T16:47:30.109Z,11.18
2023-03-18T16:50:35.984Z,10.99
2023-03-18T16:53:25.937Z,10.75
2023-03-18T16:56:16.262Z,10.58
2023-03-18T16:58:44.569Z,10.41
2023-03-18T17:01:17.201Z,10.18
2023-03-18T17:03:48.113Z,9.99
2023-03-18T17:06:15.833Z,9.80
2023-03-18T17:08:45.805Z,9.58
2023-03-18T17:11:24.158Z,9.41
2023-03-18T17:13:54.694Z,9.22
2023-03-18T17:16:26.340Z,9.03
2023-03-18T17:18:53.247Z,8.84
2023-03-18T17:21:19.983Z,8.70
2023-03-18T17:23:48.910Z,8.66
2023-03-18T17:26:18.818Z,8.68
2023-03-18T17:28:58.724Z,8.66
2023-03-18T17:31:33.317Z,8.61
2023-03-18T17:34:00.566Z,8.47
2023-03-18T17:36:33.504Z,8.25
2023-03-18T17:39:06.246Z,8.02
2023-03-18T17:41:33.064Z,7.83
2023-03-18T17:44:00.330Z,7.68
2023-03-18T17:46:30.809Z,7.52
2023-03-18T17:49:25.076Z,7.35
2023-03-18T17:51:55.736Z,7.18
2023-03-18T17:54:36.452Z,7.03
2023-03-18T17:57:03.491Z,6.79
2023-03-18T17:59:34.149Z,6.73
2023-03-18T18:02:04.234Z,6.66
2023-03-18T18:04:31.286Z,6.66
2023-03-18T19:00:23.858Z,6.05
2023-03-18T19:29:01.361Z,5.81
2023-03-18T19:31:48.682Z,5.81
2023-03-18T19:34:24.358Z,5.84
2023-03-18T19:36:55.953Z,5.89
2023-03-18T19:39:28.446Z,5.89
2023-03-18T19:41:55.633Z,5.88
2023-03-18T19:44:28.033Z,5.89
2023-03-18T19:47:01.494Z,5.76
2023-03-18T19:49:46.512Z,5.76
2023-03-18T19:52:33.221Z,5.79
2023-03-18T19:55:02.668Z,5.79
2023-03-18T19:57:32.603Z,5.89
2023-03-18T20:00:05.818Z,5.98
2023-03-18T20:02:36.007Z,6.07
2023-03-18T20:05:23.056Z,6.11
2023-03-18T20:07:50.603Z,6.28
2023-03-18T20:10:22.905Z,6.35
2023-03-18T20:12:56.390Z,6.35
2023-03-18T20:15:36.205Z,6.34
2023-03-18T20:18:06.221Z,6.41
2023-03-18T20:20:33.579Z,6.43
2023-03-18T20:23:15.036Z,6.45
2023-03-18T20:25:57.087Z,6.38
2023-03-18T20:28:27.177Z,6.37
2023-03-18T20:30:56.480Z,6.37
2023-03-18T20:33:23.853Z,6.38
2023-03-18T20:35:54.340Z,6.38
2023-03-18T20:38:43.805Z,6.39
2023-03-18T20:41:50.338Z,6.40
2023-03-18T20:44:22.991Z,6.39
2023-03-18T20:46:50.320Z,6.39
2023-03-18T20:49:20.725Z,6.37
2023-03-18T20:52:14.851Z,6.41
2023-03-18T20:54:50.793Z,6.50
2023-03-18T20:57:21.069Z,6.54
2023-03-18T20:59:50.854Z,6.60
2023-03-18T21:02:36.375Z,6.68
2023-03-18T21:05:04.401Z,6.83
2023-03-18T21:07:37.258Z,6.91
2023-03-18T21:10:07.243Z,7.02
2023-03-18T21:12:36.557Z,7.10
2023-03-18T21:15:04.562Z,7.18
2023-03-18T21:17:32.679Z,7.21
2023-03-18T21:20:19.155Z,7.23
2023-03-18T21:22:48.829Z,7.28
2023-03-18T21:25:24.821Z,7.47
2023-03-18T21:27:57.813Z,7.71
2023-03-18T21:30:27.507Z,7.92
2023-03-18T21:32:54.437Z,8.07
2023-03-18T21:35:28.708Z,8.19
2023-03-18T21:37:59.299Z,8.29
2023-03-18T21:40:31.828Z,8.36
2023-03-18T21:42:58.612Z,8.48
2023-03-18T21:45:25.483Z,8.63
2023-03-18T21:47:57.591Z,8.68
2023-03-18T21:50:29.084Z,8.66
2023-03-18T21:52:56.134Z,8.64
2023-03-18T21:55:29.327Z,8.80
2023-03-18T21:57:58.434Z,8.80
2023-03-18T22:00:28.066Z,8.87
2023-03-18T22:03:03.266Z,8.98
2023-03-18T22:05:30.085Z,9.04
2023-03-18T22:07:59.931Z,9.02
2023-03-18T22:10:34.158Z,8.98
2023-03-18T22:13:01.005Z,8.95
2023-03-18T22:16:02.901Z,8.83
2023-03-18T22:18:29.702Z,8.82
2023-03-18T22:20:57.771Z,8.84
2023-03-18T22:23:33.347Z,8.93
2023-03-18T22:26:00.366Z,8.96
2023-03-18T22:28:33.691Z,8.95
2023-03-18T22:31:03.149Z,8.93
2023-03-18T22:33:34.634Z,8.87
2023-03-18T22:36:02.440Z,8.83
2023-03-18T22:38:37.268Z,8.80
2023-03-18T22:41:04.730Z,8.72
2023-03-18T22:43:38.323Z,8.67
2023-03-18T22:46:11.642Z,8.58
2023-03-18T22:48:47.020Z,8.50
2023-03-18T22:51:30.362Z,8.40
2023-03-18T22:53:57.300Z,8.24
2023-03-18T22:56:24.233Z,8.27
2023-03-18T22:58:59.023Z,8.10
2023-03-18T23:01:31.046Z,7.81
2023-03-18T23:04:00.852Z,7.58
2023-03-18T23:06:33.829Z,7.44
2023-03-18T23:09:05.175Z,7.41
2023-03-18T23:11:34.680Z,7.57
2023-03-18T23:14:10.477Z,7.64
2023-03-18T23:16:49.560Z,7.53
2023-03-18T23:19:18.692Z,7.53
2023-03-18T23:21:48.599Z,7.63
2023-03-18T23:24:21.082Z,7.65
2023-03-18T23:26:53.635Z,7.71
2023-03-18T23:29:23.293Z,7.72
2023-03-18T23:31:52.556Z,7.82
2023-03-18T23:34:22.294Z,7.83
2023-03-18T23:36:49.719Z,7.82
2023-03-18T23:39:16.488Z,7.79
2023-03-18T23:41:58.557Z,7.80
2023-03-18T23:44:27.137Z,7.80
2023-03-18T23:46:54.406Z,7.89
2023-03-18T23:49:24.534Z,7.90
2023-03-18T23:52:01.297Z,8.02
2023-03-18T23:54:29.065Z,8.06
2023-03-18T23:57:16.280Z,8.10
2023-03-18T23:59:50.551Z,8.17
